sensor_id;sensor_type;location;lat;lon;timestamp;pressure;altitude;pressure_sealevel;temperature;humidity
54455;BME280;40364;52.270;10.546;2023-01-31T00:01:04;100817.41;;;9.49;81.37
54455;BME280;40364;52.270;10.546;2023-01-31T00:03:31;100829.38;;;9.24;80.74
54455;BME280;40364;52.270;10.546;2023-01-31T00:06:08;100813.50;;;9.41;78.04
54455;BME280;40364;52.270;10.546;2023-01-31T00:08:35;100816.00;;;9.08;80.39
54455;BME280;40364;52.270;10.546;2023-01-31T00:11:01;100823.88;;;9.79;75.58
54455;BME280;40364;52.270;10.546;2023-01-31T00:13:28;100830.03;;;9.38;78.39
54455;BME280;40364;52.270;10.546;2023-01-31T00:15:56;100818.25;;;9.41;80.56
54455;BME280;40364;52.270;10.546;2023-01-31T00:18:23;100828.56;;;9.23;80.90
54455;BME280;40364;52.270;10.546;2023-01-31T00:20:50;100834.56;;;9.51;81.14
54455;BME280;40364;52.270;10.546;2023-01-31T00:23:17;100844.09;;;9.33;81.90
54455;BME280;40364;52.270;10.546;2023-01-31T00:25:43;100839.63;;;10.51;75.31
54455;BME280;40364;52.270;10.546;2023-01-31T00:28:10;100836.88;;;9.49;80.51
54455;BME280;40364;52.270;10.546;2023-01-31T00:30:37;100844.13;;;9.97;79.65
54455;BME280;40364;52.270;10.546;2023-01-31T00:33:05;100841.56;;;9.74;80.64
54455;BME280;40364;52.270;10.546;2023-01-31T00:35:32;100853.53;;;9.66;80.23
54455;BME280;40364;52.270;10.546;2023-01-31T00:37:58;100849.66;;;9.33;81.85
54455;BME280;40364;52.270;10.546;2023-01-31T00:40:25;100858.13;;;9.62;79.23
54455;BME280;40364;52.270;10.546;2023-01-31T00:42:52;100858.88;;;12.38;61.69
54455;BME280;40364;52.270;10.546;2023-01-31T00:45:18;100857.09;;;13.35;56.29
54455;BME280;40364;52.270;10.546;2023-01-31T00:47:45;100866.78;;;9.61;76.18
54455;BME280;40364;52.270;10.546;2023-01-31T00:50:15;100866.50;;;9.45;79.43
54455;BME280;40364;52.270;10.546;2023-01-31T00:52:41;100863.09;;;9.14;82.39
54455;BME280;40364;52.270;10.546;2023-01-31T00:55:08;100855.38;;;9.28;81.13
54455;BME280;40364;52.270;10.546;2023-01-31T00:57:35;100858.28;;;8.71;86.13
54455;BME280;40364;52.270;10.546;2023-01-31T01:00:03;100867.50;;;9.06;85.56
54455;BME280;40364;52.270;10.546;2023-01-31T01:02:29;100869.91;;;9.59;81.42
54455;BME280;40364;52.270;10.546;2023-01-31T01:04:56;100869.28;;;9.10;84.19
54455;BME280;40364;52.270;10.546;2023-01-31T01:07:24;100872.22;;;10.51;74.34
54455;BME280;40364;52.270;10.546;2023-01-31T01:09:51;100870.31;;;9.87;75.75
54455;BME280;40364;52.270;10.546;2023-01-31T01:12:18;100881.25;;;10.48;73.99
54455;BME280;40364;52.270;10.546;2023-01-31T01:14:45;100869.75;;;10.58;73.10
54455;BME280;40364;52.270;10.546;2023-01-31T01:17:12;100877.47;;;10.52;73.29
54455;BME280;40364;52.270;10.546;2023-01-31T01:19:39;100866.66;;;10.21;76.52
54455;BME280;40364;52.270;10.546;2023-01-31T01:22:06;100872.03;;;10.56;73.97
54455;BME280;40364;52.270;10.546;2023-01-31T01:24:34;100892.47;;;10.68;73.58
54455;BME280;40364;52.270;10.546;2023-01-31T01:27:00;100891.66;;;10.38;74.73
54455;BME280;40364;52.270;10.546;2023-01-31T01:29:29;100900.69;;;10.65;72.05
54455;BME280;40364;52.270;10.546;2023-01-31T01:31:55;100897.63;;;10.49;73.86
54455;BME280;40364;52.270;10.546;2023-01-31T01:34:22;100891.41;;;10.52;72.01
54455;BME280;40364;52.270;10.546;2023-01-31T01:36:49;100900.56;;;10.53;72.82
54455;BME280;40364;52.270;10.546;2023-01-31T01:39:17;100890.34;;;10.65;72.47
54455;BME280;40364;52.270;10.546;2023-01-31T01:41:46;100907.81;;;9.81;75.55
54455;BME280;40364;52.270;10.546;2023-01-31T01:44:42;100901.25;;;10.79;70.91
54455;BME280;40364;52.270;10.546;2023-01-31T01:47:09;100901.81;;;11.35;68.68
54455;BME280;40364;52.270;10.546;2023-01-31T01:49:39;100910.19;;;10.93;68.77
54455;BME280;40364;52.270;10.546;2023-01-31T01:52:07;100921.44;;;11.26;68.19
54455;BME280;40364;52.270;10.546;2023-01-31T01:54:43;100906.44;;;10.89;68.49
54455;BME280;40364;52.270;10.546;2023-01-31T01:57:16;100922.38;;;10.51;71.52
54455;BME280;40364;52.270;10.546;2023-01-31T01:59:47;100928.19;;;10.96;71.99
54455;BME280;40364;52.270;10.546;2023-01-31T02:02:16;100933.72;;;9.47;79.50
54455;BME280;40364;52.270;10.546;2023-01-31T02:04:45;100943.16;;;9.03;88.28
54455;BME280;40364;52.270;10.546;2023-01-31T02:07:13;100939.41;;;9.94;83.76
54455;BME280;40364;52.270;10.546;2023-01-31T02:09:45;100930.16;;;10.28;80.65
54455;BME280;40364;52.270;10.546;2023-01-31T02:12:15;100941.84;;;10.04;82.77
54455;BME280;40364;52.270;10.546;2023-01-31T02:14:43;100938.09;;;9.83;85.29
54455;BME280;40364;52.270;10.546;2023-01-31T02:17:12;100951.88;;;9.70;85.05
54455;BME280;40364;52.270;10.546;2023-01-31T02:19:51;100961.31;;;10.04;80.96
54455;BME280;40364;52.270;10.546;2023-01-31T02:22:26;100973.22;;;11.06;75.82
54455;BME280;40364;52.270;10.546;2023-01-31T02:34:09;100953.38;;;10.40;76.88
54455;BME280;40364;52.270;10.546;2023-01-31T02:36:50;100948.81;;;10.19;79.88
54455;BME280;40364;52.270;10.546;2023-01-31T02:39:28;100938.94;;;10.47;78.37
54455;BME280;40364;52.270;10.546;2023-01-31T02:42:02;100943.81;;;9.95;82.10
54455;BME280;40364;52.270;10.546;2023-01-31T02:44:36;100948.72;;;9.80;83.24
54455;BME280;40364;52.270;10.546;2023-01-31T02:47:29;100934.69;;;9.68;84.84
54455;BME280;40364;52.270;10.546;2023-01-31T02:50:03;100947.25;;;10.00;82.07
54455;BME280;40364;52.270;10.546;2023-01-31T02:52:42;100944.66;;;10.51;79.62
54455;BME280;40364;52.270;10.546;2023-01-31T02:55:15;100933.34;;;12.34;63.71
54455;BME280;40364;52.270;10.546;2023-01-31T02:58:03;100941.75;;;12.95;60.06
54455;BME280;40364;52.270;10.546;2023-01-31T03:00:33;100949.16;;;12.18;62.59
54455;BME280;40364;52.270;10.546;2023-01-31T03:03:04;100963.19;;;12.55;60.81
54455;BME280;40364;52.270;10.546;2023-01-31T03:05:33;100965.31;;;10.41;72.69
54455;BME280;40364;52.270;10.546;2023-01-31T03:08:01;100972.16;;;9.45;81.55
54455;BME280;40364;52.270;10.546;2023-01-31T03:10:52;100966.88;;;10.04;80.45
54455;BME280;40364;52.270;10.546;2023-01-31T03:13:32;100972.97;;;10.61;79.14
54455;BME280;40364;52.270;10.546;2023-01-31T03:16:11;100954.31;;;9.63;84.03
54455;BME280;40364;52.270;10.546;2023-01-31T03:19:04;100955.88;;;10.16;79.02
54455;BME280;40364;52.270;10.546;2023-01-31T03:21:43;100964.75;;;10.01;80.17
54455;BME280;40364;52.270;10.546;2023-01-31T03:24:13;100951.53;;;9.63;82.65
54455;BME280;40364;52.270;10.546;2023-01-31T03:26:40;100955.56;;;10.26;77.00
54455;BME280;40364;52.270;10.546;2023-01-31T03:29:07;100951.88;;;9.36;86.49
54455;BME280;40364;52.270;10.546;2023-01-31T03:31:38;100952.31;;;9.90;84.29
54455;BME280;40364;52.270;10.546;2023-01-31T03:34:09;100947.28;;;9.66;86.03
54455;BME280;40364;52.270;10.546;2023-01-31T03:36:43;100948.72;;;9.98;83.69
54455;BME280;40364;52.270;10.546;2023-01-31T03:39:17;100955.50;;;13.25;62.65
54455;BME280;40364;52.270;10.546;2023-01-31T03:41:53;100946.06;;;10.10;75.17
54455;BME280;40364;52.270;10.546;2023-01-31T03:44:28;100952.00;;;10.55;75.00
54455;BME280;40364;52.270;10.546;2023-01-31T03:47:01;100943.47;;;10.05;82.59
54455;BME280;40364;52.270;10.546;2023-01-31T03:49:30;100950.28;;;10.33;80.89
54455;BME280;40364;52.270;10.546;2023-01-31T03:52:03;100952.78;;;10.26;81.01
54455;BME280;40364;52.270;10.546;2023-01-31T03:54:35;100949.22;;;9.83;90.78
54455;BME280;40364;52.270;10.546;2023-01-31T03:57:08;100955.97;;;9.73;89.35
54455;BME280;40364;52.270;10.546;2023-01-31T03:59:38;100954.56;;;13.33;61.88
54455;BME280;40364;52.270;10.546;2023-01-31T04:02:09;100945.81;;;10.79;75.84
54455;BME280;40364;52.270;10.546;2023-01-31T04:04:39;100946.22;;;10.22;83.69
54455;BME280;40364;52.270;10.546;2023-01-31T04:07:09;100947.03;;;10.14;82.89
54455;BME280;40364;52.270;10.546;2023-01-31T04:09:37;100953.66;;;9.15;90.52
54455;BME280;40364;52.270;10.546;2023-01-31T04:12:05;100943.28;;;8.89;93.84
54455;BME280;40364;52.270;10.546;2023-01-31T04:14:31;100948.09;;;9.15;94.55
54455;BME280;40364;52.270;10.546;2023-01-31T04:16:58;100943.03;;;9.17;94.15
54455;BME280;40364;52.270;10.546;2023-01-31T04:19:25;100939.56;;;9.97;89.61
54455;BME280;40364;52.270;10.546;2023-01-31T04:21:52;100954.31;;;9.29;92.20
54455;BME280;40364;52.270;10.546;2023-01-31T04:24:20;100939.41;;;9.85;88.60
54455;BME280;40364;52.270;10.546;2023-01-31T04:26:47;100953.66;;;9.66;89.48
54455;BME280;40364;52.270;10.546;2023-01-31T04:29:14;100942.53;;;9.15;91.76
54455;BME280;40364;52.270;10.546;2023-01-31T04:31:41;100940.25;;;9.17;91.13
54455;BME280;40364;52.270;10.546;2023-01-31T04:34:08;100931.81;;;10.11;85.25
54455;BME280;40364;52.270;10.546;2023-01-31T04:36:35;100940.38;;;11.33;75.46
54455;BME280;40364;52.270;10.546;2023-01-31T04:39:01;100944.19;;;11.07;77.70
54455;BME280;40364;52.270;10.546;2023-01-31T04:41:30;100949.09;;;9.70;84.53
54455;BME280;40364;52.270;10.546;2023-01-31T04:43:57;100932.09;;;11.99;69.00
54455;BME280;40364;52.270;10.546;2023-01-31T04:46:23;100946.66;;;12.62;63.57
54455;BME280;40364;52.270;10.546;2023-01-31T04:48:50;100952.97;;;13.60;56.79
54455;BME280;40364;52.270;10.546;2023-01-31T04:51:17;100947.59;;;13.27;57.84
54455;BME280;40364;52.270;10.546;2023-01-31T04:53:44;100944.91;;;13.70;54.57
54455;BME280;40364;52.270;10.546;2023-01-31T04:56:11;100963.66;;;13.42;56.10
54455;BME280;40364;52.270;10.546;2023-01-31T04:58:39;100948.19;;;12.71;58.42
54455;BME280;40364;52.270;10.546;2023-01-31T05:01:08;100959.47;;;12.87;57.68
54455;BME280;40364;52.270;10.546;2023-01-31T05:03:34;100964.03;;;12.79;57.45
54455;BME280;40364;52.270;10.546;2023-01-31T05:06:01;100969.50;;;13.00;57.59
54455;BME280;40364;52.270;10.546;2023-01-31T05:08:28;100966.13;;;12.95;57.70
54455;BME280;40364;52.270;10.546;2023-01-31T05:10:57;100973.34;;;12.71;58.72
54455;BME280;40364;52.270;10.546;2023-01-31T05:13:24;100970.16;;;9.11;81.70
54455;BME280;40364;52.270;10.546;2023-01-31T05:15:52;100966.44;;;9.76;79.83
54455;BME280;40364;52.270;10.546;2023-01-31T05:18:19;100972.25;;;8.97;86.88
54455;BME280;40364;52.270;10.546;2023-01-31T05:20:47;100964.19;;;8.78;89.05
54455;BME280;40364;52.270;10.546;2023-01-31T05:23:14;100955.72;;;8.83;87.73
54455;BME280;40364;52.270;10.546;2023-01-31T05:25:41;100951.53;;;8.63;87.96
54455;BME280;40364;52.270;10.546;2023-01-31T05:28:08;100949.91;;;9.71;79.71
54455;BME280;40364;52.270;10.546;2023-01-31T05:30:35;100953.84;;;9.44;83.47
54455;BME280;40364;52.270;10.546;2023-01-31T05:33:03;100952.84;;;9.57;82.12
54455;BME280;40364;52.270;10.546;2023-01-31T05:35:30;100961.31;;;9.18;84.82
54455;BME280;40364;52.270;10.546;2023-01-31T05:37:57;100960.22;;;9.36;82.88
54455;BME280;40364;52.270;10.546;2023-01-31T05:40:24;100954.66;;;9.36;83.57
54455;BME280;40364;52.270;10.546;2023-01-31T05:42:53;100951.81;;;10.05;77.08
54455;BME280;40364;52.270;10.546;2023-01-31T05:45:20;100961.53;;;9.73;77.29
54455;BME280;40364;52.270;10.546;2023-01-31T05:47:47;100966.56;;;9.97;79.10
54455;BME280;40364;52.270;10.546;2023-01-31T05:50:16;100958.22;;;9.79;76.35
54455;BME280;40364;52.270;10.546;2023-01-31T05:52:49;100966.00;;;10.38;74.53
54455;BME280;40364;52.270;10.546;2023-01-31T05:55:16;100971.59;;;10.12;77.13
54455;BME280;40364;52.270;10.546;2023-01-31T05:57:42;100967.38;;;10.06;74.17
54455;BME280;40364;52.270;10.546;2023-01-31T06:00:10;100968.38;;;9.58;77.04
54455;BME280;40364;52.270;10.546;2023-01-31T06:02:37;100968.88;;;9.52;76.95
54455;BME280;40364;52.270;10.546;2023-01-31T06:05:04;100971.03;;;9.46;78.43
54455;BME280;40364;52.270;10.546;2023-01-31T06:07:32;100967.06;;;9.30;78.31
54455;BME280;40364;52.270;10.546;2023-01-31T06:09:59;100973.91;;;9.06;81.56
54455;BME280;40364;52.270;10.546;2023-01-31T06:12:25;100974.69;;;8.98;82.57
54455;BME280;40364;52.270;10.546;2023-01-31T06:14:53;100970.00;;;9.25;79.66
54455;BME280;40364;52.270;10.546;2023-01-31T06:17:19;100967.06;;;9.82;80.05
54455;BME280;40364;52.270;10.546;2023-01-31T06:19:48;100969.03;;;9.81;76.63
54455;BME280;40364;52.270;10.546;2023-01-31T06:22:14;100968.72;;;9.39;78.17
54455;BME280;40364;52.270;10.546;2023-01-31T06:24:43;100963.81;;;9.62;78.01
54455;BME280;40364;52.270;10.546;2023-01-31T06:27:09;100962.31;;;9.91;71.95
54455;BME280;40364;52.270;10.546;2023-01-31T06:29:36;100965.63;;;12.44;60.85
54455;BME280;40364;52.270;10.546;2023-01-31T06:32:03;100956.09;;;12.94;56.53
54455;BME280;40364;52.270;10.546;2023-01-31T06:34:30;100957.03;;;12.98;57.58
54455;BME280;40364;52.270;10.546;2023-01-31T06:36:56;100951.19;;;13.39;54.77
54455;BME280;40364;52.270;10.546;2023-01-31T06:39:23;100941.03;;;14.03;52.14
54455;BME280;40364;52.270;10.546;2023-01-31T06:41:52;100942.81;;;10.63;63.90
54455;BME280;40364;52.270;10.546;2023-01-31T06:44:19;100943.75;;;10.12;72.55
54455;BME280;40364;52.270;10.546;2023-01-31T06:46:45;100919.38;;;10.09;72.23
54455;BME280;40364;52.270;10.546;2023-01-31T06:49:12;100922.75;;;9.51;75.21
54455;BME280;40364;52.270;10.546;2023-01-31T06:51:39;100914.41;;;9.76;76.53
54455;BME280;40364;52.270;10.546;2023-01-31T06:54:05;100913.69;;;9.97;76.35
54455;BME280;40364;52.270;10.546;2023-01-31T06:56:32;100915.22;;;9.68;76.58
54455;BME280;40364;52.270;10.546;2023-01-31T06:59:00;100900.69;;;10.27;75.33
54455;BME280;40364;52.270;10.546;2023-01-31T07:01:27;100900.56;;;10.06;72.54
54455;BME280;40364;52.270;10.546;2023-01-31T07:03:53;100907.44;;;10.55;70.61
54455;BME280;40364;52.270;10.546;2023-01-31T07:06:20;100903.81;;;10.63;67.92
54455;BME280;40364;52.270;10.546;2023-01-31T07:08:47;100900.94;;;9.87;75.72
54455;BME280;40364;52.270;10.546;2023-01-31T07:11:14;100885.97;;;10.56;72.30
54455;BME280;40364;52.270;10.546;2023-01-31T07:13:40;100873.84;;;10.22;71.82
54455;BME280;40364;52.270;10.546;2023-01-31T07:16:08;100872.34;;;10.16;74.24
54455;BME280;40364;52.270;10.546;2023-01-31T07:18:35;100874.25;;;9.95;74.27
54455;BME280;40364;52.270;10.546;2023-01-31T07:21:02;100874.03;;;10.08;74.10
54455;BME280;40364;52.270;10.546;2023-01-31T07:23:28;100864.66;;;9.66;76.26
54455;BME280;40364;52.270;10.546;2023-01-31T07:25:55;100869.81;;;10.99;68.65
54455;BME280;40364;52.270;10.546;2023-01-31T07:28:22;100859.19;;;9.87;73.46
54455;BME280;40364;52.270;10.546;2023-01-31T07:30:48;100852.56;;;9.62;77.89
54455;BME280;40364;52.270;10.546;2023-01-31T07:33:17;100855.88;;;9.47;79.51
54455;BME280;40364;52.270;10.546;2023-01-31T07:35:45;100852.22;;;10.10;75.43
54455;BME280;40364;52.270;10.546;2023-01-31T07:38:11;100844.75;;;9.47;76.35
54455;BME280;40364;52.270;10.546;2023-01-31T07:40:38;100843.78;;;9.34;81.23
54455;BME280;40364;52.270;10.546;2023-01-31T07:43:05;100843.47;;;9.10;81.75
54455;BME280;40364;52.270;10.546;2023-01-31T07:45:32;100844.69;;;10.20;79.22
54455;BME280;40364;52.270;10.546;2023-01-31T07:47:58;100844.63;;;10.66;72.58
54455;BME280;40364;52.270;10.546;2023-01-31T07:50:27;100836.66;;;10.18;76.14
54455;BME280;40364;52.270;10.546;2023-01-31T07:52:56;100836.91;;;9.23;84.08
54455;BME280;40364;52.270;10.546;2023-01-31T07:55:22;100835.06;;;9.62;80.37
54455;BME280;40364;52.270;10.546;2023-01-31T07:57:49;100824.69;;;10.18;77.77
54455;BME280;40364;52.270;10.546;2023-01-31T08:00:17;100826.03;;;10.11;79.00
54455;BME280;40364;52.270;10.546;2023-01-31T08:03:01;100806.25;;;9.58;81.26
54455;BME280;40364;52.270;10.546;2023-01-31T08:05:46;100806.66;;;9.30;85.53
54455;BME280;40364;52.270;10.546;2023-01-31T08:08:13;100803.72;;;9.82;82.36
54455;BME280;40364;52.270;10.546;2023-01-31T08:10:40;100798.16;;;9.18;86.27
54455;BME280;40364;52.270;10.546;2023-01-31T08:13:06;100815.81;;;9.95;80.80
54455;BME280;40364;52.270;10.546;2023-01-31T08:15:35;100804.84;;;9.43;85.82
54455;BME280;40364;52.270;10.546;2023-01-31T08:18:02;100805.41;;;10.12;77.82
54455;BME280;40364;52.270;10.546;2023-01-31T08:20:29;100809.56;;;9.98;82.03
54455;BME280;40364;52.270;10.546;2023-01-31T08:22:57;100806.84;;;10.77;77.58
54455;BME280;40364;52.270;10.546;2023-01-31T08:25:25;100811.78;;;10.13;78.90
54455;BME280;40364;52.270;10.546;2023-01-31T08:27:53;100804.59;;;9.74;82.12
54455;BME280;40364;52.270;10.546;2023-01-31T08:30:20;100806.16;;;9.92;80.50
54455;BME280;40364;52.270;10.546;2023-01-31T08:32:46;100785.16;;;10.83;77.66
54455;BME280;40364;52.270;10.546;2023-01-31T08:35:13;100788.81;;;9.87;81.29
54455;BME280;40364;52.270;10.546;2023-01-31T08:37:40;100797.59;;;10.06;80.48
54455;BME280;40364;52.270;10.546;2023-01-31T08:40:09;100787.63;;;10.64;76.73
54455;BME280;40364;52.270;10.546;2023-01-31T08:42:36;100791.41;;;10.00;79.40
54455;BME280;40364;52.270;10.546;2023-01-31T08:45:03;100781.22;;;10.04;79.80
54455;BME280;40364;52.270;10.546;2023-01-31T08:47:31;100781.97;;;10.93;74.51
54455;BME280;40364;52.270;10.546;2023-01-31T08:49:58;100783.75;;;11.76;68.42
54455;BME280;40364;52.270;10.546;2023-01-31T08:52:24;100769.59;;;10.61;74.27
54455;BME280;40364;52.270;10.546;2023-01-31T08:54:51;100767.50;;;11.00;71.99
54455;BME280;40364;52.270;10.546;2023-01-31T08:57:19;100755.19;;;10.38;75.36
54455;BME280;40364;52.270;10.546;2023-01-31T08:59:46;100774.09;;;11.28;70.42
54455;BME280;40364;52.270;10.546;2023-01-31T09:02:12;100754.31;;;10.88;73.89
54455;BME280;40364;52.270;10.546;2023-01-31T09:04:39;100755.75;;;11.39;68.96
54455;BME280;40364;52.270;10.546;2023-01-31T09:07:06;100742.63;;;11.40;68.68
54455;BME280;40364;52.270;10.546;2023-01-31T09:09:32;100737.63;;;11.78;65.45
54455;BME280;40364;52.270;10.546;2023-01-31T09:11:59;100750.16;;;11.27;70.13
54455;BME280;40364;52.270;10.546;2023-01-31T09:14:27;100748.03;;;11.57;69.21
54455;BME280;40364;52.270;10.546;2023-01-31T09:16:55;100725.06;;;10.94;71.35
54455;BME280;40364;52.270;10.546;2023-01-31T09:19:22;100730.31;;;10.96;69.77
54455;BME280;40364;52.270;10.546;2023-01-31T09:21:49;100745.19;;;10.79;71.14
54455;BME280;40364;52.270;10.546;2023-01-31T09:24:15;100735.13;;;10.45;73.14
54455;BME280;40364;52.270;10.546;2023-01-31T09:26:42;100738.75;;;10.45;72.03
54455;BME280;40364;52.270;10.546;2023-01-31T09:29:08;100727.88;;;11.06;71.23
54455;BME280;40364;52.270;10.546;2023-01-31T09:31:36;100716.44;;;11.20;69.17
54455;BME280;40364;52.270;10.546;2023-01-31T09:34:03;100703.50;;;11.48;67.20
54455;BME280;40364;52.270;10.546;2023-01-31T09:36:30;100708.34;;;10.94;69.56
54455;BME280;40364;52.270;10.546;2023-01-31T09:38:56;100703.41;;;10.79;71.63
54455;BME280;40364;52.270;10.546;2023-01-31T09:41:26;100704.13;;;10.88;72.46
54455;BME280;40364;52.270;10.546;2023-01-31T09:43:57;100702.59;;;11.11;70.34
54455;BME280;40364;52.270;10.546;2023-01-31T09:46:29;100716.50;;;10.99;70.10
54455;BME280;40364;52.270;10.546;2023-01-31T09:49:15;100718.53;;;12.05;65.60
54455;BME280;40364;52.270;10.546;2023-01-31T09:51:47;100704.22;;;10.79;70.03
54455;BME280;40364;52.270;10.546;2023-01-31T09:54:18;100690.88;;;10.85;71.05
54455;BME280;40364;52.270;10.546;2023-01-31T09:56:53;100690.63;;;10.78;73.56
54455;BME280;40364;52.270;10.546;2023-01-31T09:59:29;100691.97;;;11.50;68.61
54455;BME280;40364;52.270;10.546;2023-01-31T10:02:08;100676.28;;;10.88;70.30
54455;BME280;40364;52.270;10.546;2023-01-31T10:04:52;100689.41;;;11.45;68.52
54455;BME280;40364;52.270;10.546;2023-01-31T10:07:27;100689.00;;;10.77;71.23
54455;BME280;40364;52.270;10.546;2023-01-31T10:09:59;100683.22;;;10.82;70.24
54455;BME280;40364;52.270;10.546;2023-01-31T10:12:32;100685.19;;;11.14;71.25
54455;BME280;40364;52.270;10.546;2023-01-31T10:15:01;100677.06;;;11.34;71.14
54455;BME280;40364;52.270;10.546;2023-01-31T10:17:33;100658.38;;;10.56;74.47
54455;BME280;40364;52.270;10.546;2023-01-31T10:20:08;100663.34;;;11.17;75.46
54455;BME280;40364;52.270;10.546;2023-01-31T10:22:38;100667.31;;;11.28;77.71
54455;BME280;40364;52.270;10.546;2023-01-31T10:25:20;100676.22;;;11.09;80.98
54455;BME280;40364;52.270;10.546;2023-01-31T10:27:54;100676.19;;;10.43;90.44
54455;BME280;40364;52.270;10.546;2023-01-31T10:30:26;100672.31;;;13.15;74.56
54455;BME280;40364;52.270;10.546;2023-01-31T10:32:58;100672.78;;;13.18;72.95
54455;BME280;40364;52.270;10.546;2023-01-31T10:35:32;100679.91;;;11.58;83.62
54455;BME280;40364;52.270;10.546;2023-01-31T10:38:04;100667.63;;;10.69;91.50
54455;BME280;40364;52.270;10.546;2023-01-31T10:40:34;100660.66;;;9.92;99.72
54455;BME280;40364;52.270;10.546;2023-01-31T10:43:09;100652.66;;;10.11;100.00
54455;BME280;40364;52.270;10.546;2023-01-31T10:45:37;100647.72;;;12.93;75.83
54455;BME280;40364;52.270;10.546;2023-01-31T10:48:13;100645.44;;;12.27;70.55
54455;BME280;40364;52.270;10.546;2023-01-31T10:50:52;100646.13;;;10.36;90.42
54455;BME280;40364;52.270;10.546;2023-01-31T10:53:38;100636.66;;;10.29;95.51
54455;BME280;40364;52.270;10.546;2023-01-31T10:56:12;100634.22;;;10.27;94.57
54455;BME280;40364;52.270;10.546;2023-01-31T10:58:44;100630.28;;;10.28;93.20
54455;BME280;40364;52.270;10.546;2023-01-31T11:01:12;100623.31;;;9.93;96.56
54455;BME280;40364;52.270;10.546;2023-01-31T11:03:40;100603.59;;;11.05;86.24
54455;BME280;40364;52.270;10.546;2023-01-31T11:06:12;100591.50;;;9.52;99.42
54455;BME280;40364;52.270;10.546;2023-01-31T11:08:42;100576.34;;;10.12;92.94
54455;BME280;40364;52.270;10.546;2023-01-31T11:11:11;100580.34;;;9.82;95.11
54455;BME280;40364;52.270;10.546;2023-01-31T11:13:38;100552.41;;;9.49;100.00
54455;BME280;40364;52.270;10.546;2023-01-31T11:16:07;100555.16;;;10.40;91.02
54455;BME280;40364;52.270;10.546;2023-01-31T11:18:37;100556.97;;;9.53;99.21
54455;BME280;40364;52.270;10.546;2023-01-31T11:21:09;100540.09;;;9.79;97.21
54455;BME280;40364;52.270;10.546;2023-01-31T11:23:45;100548.31;;;10.38;93.19
54455;BME280;40364;52.270;10.546;2023-01-31T11:26:12;100542.22;;;9.82;97.15
54455;BME280;40364;52.270;10.546;2023-01-31T11:28:40;100529.25;;;10.28;93.67
54455;BME280;40364;52.270;10.546;2023-01-31T11:31:25;100517.25;;;9.73;97.22
54455;BME280;40364;52.270;10.546;2023-01-31T11:33:58;100521.31;;;10.51;92.10
54455;BME280;40364;52.270;10.546;2023-01-31T11:36:30;100521.50;;;10.12;98.60
54455;BME280;40364;52.270;10.546;2023-01-31T11:38:59;100532.25;;;10.02;95.31
54455;BME280;40364;52.270;10.546;2023-01-31T11:41:43;100520.44;;;10.05;94.33
54455;BME280;40364;52.270;10.546;2023-01-31T11:44:12;100522.06;;;10.27;91.40
54455;BME280;40364;52.270;10.546;2023-01-31T11:46:43;100513.38;;;11.22;83.11
54455;BME280;40364;52.270;10.546;2023-01-31T11:49:12;100501.72;;;9.72;95.34
54455;BME280;40364;52.270;10.546;2023-01-31T11:51:39;100493.09;;;10.52;90.35
54455;BME280;40364;52.270;10.546;2023-01-31T11:54:16;100491.00;;;10.37;91.33
54455;BME280;40364;52.270;10.546;2023-01-31T11:56:45;100488.53;;;10.93;88.16
54455;BME280;40364;52.270;10.546;2023-01-31T11:59:16;100496.47;;;10.45;96.21
54455;BME280;40364;52.270;10.546;2023-01-31T12:01:45;100488.00;;;10.54;99.18
54455;BME280;40364;52.270;10.546;2023-01-31T12:04:16;100482.47;;;10.66;97.98
54455;BME280;40364;52.270;10.546;2023-01-31T12:06:56;100484.97;;;10.35;100.00
54455;BME280;40364;52.270;10.546;2023-01-31T12:09:26;100470.59;;;10.57;98.84
54455;BME280;40364;52.270;10.546;2023-01-31T12:11:55;100482.56;;;10.58;100.00
54455;BME280;40364;52.270;10.546;2023-01-31T12:14:25;100458.97;;;10.43;100.00
54455;BME280;40364;52.270;10.546;2023-01-31T12:17:01;100464.66;;;10.34;100.00
54455;BME280;40364;52.270;10.546;2023-01-31T12:19:36;100454.97;;;10.89;100.00
54455;BME280;40364;52.270;10.546;2023-01-31T12:22:09;100465.63;;;10.63;100.00
54455;BME280;40364;52.270;10.546;2023-01-31T12:24:45;100457.03;;;11.81;91.28
54455;BME280;40364;52.270;10.546;2023-01-31T12:27:26;100442.84;;;12.02;85.81
54455;BME280;40364;52.270;10.546;2023-01-31T12:30:10;100442.19;;;11.93;88.98
54455;BME280;40364;52.270;10.546;2023-01-31T12:33:07;100437.13;;;11.42;93.69
54455;BME280;40364;52.270;10.546;2023-01-31T12:35:44;100426.75;;;10.78;100.00
54455;BME280;40364;52.270;10.546;2023-01-31T12:38:30;100438.38;;;11.45;94.74
54455;BME280;40364;52.270;10.546;2023-01-31T12:41:16;100427.69;;;11.47;95.97
54455;BME280;40364;52.270;10.546;2023-01-31T12:46:53;100433.25;;;10.95;97.63
54455;BME280;40364;52.270;10.546;2023-01-31T12:49:30;100435.47;;;11.54;93.43
54455;BME280;40364;52.270;10.546;2023-01-31T12:52:02;100431.50;;;10.78;100.00
54455;BME280;40364;52.270;10.546;2023-01-31T12:54:44;100420.34;;;10.54;100.00
54455;BME280;40364;52.270;10.546;2023-01-31T12:57:28;100423.59;;;11.04;98.62
54455;BME280;40364;52.270;10.546;2023-01-31T13:00:10;100423.22;;;11.06;99.84
54455;BME280;40364;52.270;10.546;2023-01-31T13:02:44;100412.22;;;10.49;100.00
54455;BME280;40364;52.270;10.546;2023-01-31T13:05:24;100427.53;;;10.30;100.00
54455;BME280;40364;52.270;10.546;2023-01-31T13:07:55;100421.19;;;10.66;100.00
54455;BME280;40364;52.270;10.546;2023-01-31T13:10:34;100429.41;;;10.87;100.00